Time;durP1;ratioP1;P1;durP2;ratioP2;P2;SDS_P1;SDS_P2;PMS_P1;PMS_P2;Temp;Humidity;BMP_temperature;BMP_pressure;BME280_temperature;BME280_humidity;BME280_pressure;Samples;Min_cycle;Max_cycle;Signal;HPM_P1;HPM_P2
2022/11/15 00:00:46;;;;;;;2.67;1.27;;;9.80;99.90;;;;;;5045865;28;20116;-79
2022/11/15 00:03:14;;;;;;;4.93;1.20;;;9.80;99.90;;;;;;5049438;28;20395;-79
2022/11/15 00:05:40;;;;;;;3.70;1.35;;;9.80;99.90;;;;;;5044444;28;20038;-77
2022/11/15 00:08:06;;;;;;;2.83;1.17;;;9.80;99.90;;;;;;5042979;28;20033;-79
2022/11/15 00:10:31;;;;;;;2.45;1.40;;;9.80;99.90;;;;;;5044826;28;20047;-80
2022/11/15 00:12:57;;;;;;;3.05;1.40;;;9.80;99.90;;;;;;5044558;28;20999;-79
2022/11/15 00:15:22;;;;;;;2.50;1.38;;;9.80;99.90;;;;;;5045057;28;20108;-79
2022/11/15 00:17:49;;;;;;;5.07;1.00;;;9.70;99.90;;;;;;5042042;28;20090;-80
2022/11/15 00:20:15;;;;;;;2.22;1.23;;;9.70;99.90;;;;;;5044540;28;20517;-79
2022/11/15 00:22:40;;;;;;;5.15;1.10;;;9.70;99.90;;;;;;5042810;28;20056;-80
2022/11/15 00:25:06;;;;;;;2.90;1.60;;;9.70;99.90;;;;;;5046044;28;20028;-80
2022/11/15 00:27:32;;;;;;;7.32;3.83;;;9.70;99.90;;;;;;5040626;28;20146;-77
2022/11/15 00:29:57;;;;;;;11.65;5.25;;;9.60;99.90;;;;;;5047221;28;20071;-80
2022/11/15 00:32:23;;;;;;;9.40;4.72;;;9.60;99.90;;;;;;5043405;28;20029;-79
2022/11/15 00:34:49;;;;;;;7.10;4.40;;;9.60;99.90;;;;;;5046665;28;20091;-79
2022/11/15 00:37:14;;;;;;;8.05;4.85;;;9.50;99.90;;;;;;5041860;28;20374;-80
2022/11/15 00:39:40;;;;;;;11.00;5.72;;;9.40;99.90;;;;;;5046848;28;20115;-79
2022/11/15 00:42:05;;;;;;;10.10;5.50;;;9.40;99.90;;;;;;5045693;28;20486;-80
2022/11/15 00:44:31;;;;;;;10.55;6.55;;;9.30;99.90;;;;;;5047210;28;20440;-79
2022/11/15 00:46:56;;;;;;;12.70;7.13;;;9.20;99.90;;;;;;5044871;28;20159;-79
2022/11/15 00:49:22;;;;;;;11.70;6.72;;;9.10;99.90;;;;;;5043021;28;20025;-79
2022/11/15 00:51:48;;;;;;;16.52;7.35;;;9.00;99.90;;;;;;5043556;28;20027;-79
2022/11/15 00:54:13;;;;;;;13.60;7.70;;;8.90;99.90;;;;;;5047362;28;20043;-79
2022/11/15 00:56:39;;;;;;;14.68;9.07;;;8.90;99.90;;;;;;5046289;28;20029;-79
2022/11/15 00:59:04;;;;;;;13.80;7.63;;;8.80;99.90;;;;;;5043800;28;20037;-80
2022/11/15 01:01:30;;;;;;;12.98;7.60;;;8.70;99.90;;;;;;5046963;28;20052;-80
2022/11/15 01:03:56;;;;;;;11.73;7.55;;;8.60;99.90;;;;;;5046089;28;20090;-79
2022/11/15 01:06:21;;;;;;;14.77;7.97;;;8.50;99.90;;;;;;5044641;28;20468;-79
2022/11/15 01:08:47;;;;;;;15.43;8.60;;;8.40;99.90;;;;;;5047055;28;20374;-80
2022/11/15 01:11:12;;;;;;;12.00;8.30;;;8.40;99.90;;;;;;5044446;28;20029;-79
2022/11/15 01:13:39;;;;;;;13.98;7.50;;;8.30;99.90;;;;;;5046551;28;20492;-79
2022/11/15 01:16:10;;;;;;;13.02;8.00;;;8.20;99.90;;;;;;5049841;28;20025;-79
2022/11/15 01:18:36;;;;;;;14.18;6.93;;;8.20;99.90;;;;;;5043267;28;20067;-80
2022/11/15 01:21:20;;;;;;;16.75;7.05;;;8.20;99.90;;;;;;5040145;28;20086;-80
2022/11/15 01:23:45;;;;;;;12.52;7.05;;;8.20;99.90;;;;;;5041107;28;20021;-79
2022/11/15 01:26:14;;;;;;;12.27;6.55;;;8.10;99.90;;;;;;5040788;28;20048;-79
2022/11/15 01:28:41;;;;;;;10.35;7.35;;;8.10;99.90;;;;;;5041741;28;20029;-79
2022/11/15 01:31:14;;;;;;;15.50;8.30;;;8.10;99.90;;;;;;5047965;28;20392;-79
2022/11/15 01:33:40;;;;;;;17.05;7.45;;;8.10;99.90;;;;;;5047336;28;20556;-79
2022/11/15 01:36:09;;;;;;;12.00;7.43;;;8.00;99.90;;;;;;5045530;28;20183;-80
2022/11/15 01:38:36;;;;;;;13.90;7.57;;;8.00;99.90;;;;;;5043630;28;20128;-80
2022/11/15 01:41:02;;;;;;;13.90;7.13;;;7.90;99.90;;;;;;5041557;28;20236;-79
2022/11/15 01:43:34;;;;;;;11.00;7.30;;;7.90;99.90;;;;;;5044666;28;20033;-80
2022/11/15 01:46:23;;;;;;;11.98;6.75;;;7.90;99.90;;;;;;5039559;28;20028;-79
2022/11/15 01:48:51;;;;;;;10.90;6.60;;;7.80;99.90;;;;;;5042610;28;20029;-79
2022/11/15 01:51:20;;;;;;;9.88;6.63;;;7.80;99.90;;;;;;5040352;28;20492;-79
2022/11/15 01:53:49;;;;;;;13.57;7.32;;;7.80;99.90;;;;;;5047063;28;20116;-79
2022/11/15 01:56:20;;;;;;;10.63;6.40;;;7.70;99.90;;;;;;5045680;28;20481;-79
2022/11/15 01:58:46;;;;;;;12.23;6.82;;;7.60;99.90;;;;;;5040422;28;20037;-79
2022/11/15 02:01:13;;;;;;;10.73;7.18;;;7.60;99.90;;;;;;5044633;28;20048;-79
2022/11/15 02:03:47;;;;;;;16.40;7.78;;;7.60;99.90;;;;;;5039716;28;20505;-79
2022/11/15 02:06:14;;;;;;;11.93;6.53;;;7.60;99.90;;;;;;5044276;28;20036;-80
2022/11/15 02:08:40;;;;;;;11.82;6.75;;;7.50;99.90;;;;;;5038583;28;20106;-79
2022/11/15 02:11:09;;;;;;;13.00;6.90;;;7.40;99.90;;;;;;5043373;28;20032;-79
2022/11/15 02:13:36;;;;;;;11.40;7.97;;;7.50;99.90;;;;;;5044282;28;20099;-79
2022/11/15 02:16:22;;;;;;;11.80;7.40;;;7.40;99.90;;;;;;5047093;28;20041;-80
2022/11/15 02:19:13;;;;;;;15.80;8.13;;;7.40;99.90;;;;;;5043058;28;20088;-79
2022/11/15 02:22:16;;;;;;;16.45;8.23;;;7.40;99.90;;;;;;5045667;28;20116;-79
2022/11/15 02:25:01;;;;;;;11.80;6.82;;;7.30;99.90;;;;;;5041516;28;20064;-79
2022/11/15 02:27:46;;;;;;;11.75;7.68;;;7.30;99.90;;;;;;5045106;28;20021;-79
2022/11/15 02:30:26;;;;;;;12.43;6.88;;;7.40;99.90;;;;;;5040413;28;20083;-80
2022/11/15 02:32:58;;;;;;;10.93;6.30;;;7.40;99.90;;;;;;5044558;28;20511;-80
2022/11/15 02:35:37;;;;;;;10.75;5.68;;;7.40;99.90;;;;;;5044509;28;20037;-79
2022/11/15 02:38:13;;;;;;;9.68;5.88;;;7.40;99.90;;;;;;5043657;28;20052;-80
2022/11/15 02:41:04;;;;;;;8.32;5.35;;;7.40;99.90;;;;;;5042703;28;20053;-79
2022/11/15 02:43:56;;;;;;;8.80;5.40;;;7.50;99.90;;;;;;5042415;28;20025;-79
2022/11/15 02:49:15;;;;;;;8.85;4.63;;;7.50;99.90;;;;;;5043696;28;20048;-79
2022/11/15 02:51:43;;;;;;;9.88;5.47;;;7.60;99.90;;;;;;5050231;28;20028;-79
2022/11/15 02:54:15;;;;;;;7.40;4.45;;;7.60;99.90;;;;;;5048548;28;20033;-79
2022/11/15 02:56:43;;;;;;;8.68;4.97;;;7.60;99.90;;;;;;5045757;28;20032;-80
2022/11/15 02:59:20;;;;;;;7.32;4.00;;;7.50;99.90;;;;;;5046868;28;20392;-81
2022/11/15 03:02:01;;;;;;;7.13;4.00;;;7.60;99.90;;;;;;5047365;28;20501;-80
2022/11/15 03:04:52;;;;;;;5.60;3.40;;;7.60;99.90;;;;;;5050967;28;20037;-80
2022/11/15 03:07:34;;;;;;;3.80;2.35;;;7.60;99.90;;;;;;5045465;28;20037;-80
2022/11/15 03:10:09;;;;;;;5.57;2.35;;;7.60;99.90;;;;;;5049578;28;20032;-80
2022/11/15 03:12:44;;;;;;;3.53;2.58;;;7.70;99.90;;;;;;5041571;28;20487;-79
2022/11/15 03:15:32;;;;;;;5.22;3.00;;;7.70;99.90;;;;;;5049920;28;20025;-79
2022/11/15 03:18:12;;;;;;;7.38;3.47;;;7.80;99.90;;;;;;5044741;28;20034;-80
2022/11/15 03:20:38;;;;;;;7.03;3.88;;;7.80;99.90;;;;;;5047585;28;20037;-78
2022/11/15 03:23:07;;;;;;;7.13;2.92;;;7.80;99.90;;;;;;5041562;28;20117;-79
2022/11/15 03:25:38;;;;;;;8.30;2.50;;;7.80;99.90;;;;;;5049180;28;20032;-78
2022/11/15 03:28:06;;;;;;;4.65;1.77;;;7.90;99.90;;;;;;5045280;28;20111;-79
2022/11/15 03:30:34;;;;;;;5.47;1.88;;;7.90;99.90;;;;;;5051371;28;20027;-79
2022/11/15 03:33:02;;;;;;;3.08;1.70;;;8.00;99.90;;;;;;5042411;28;20032;-79
2022/11/15 03:35:32;;;;;;;2.63;1.10;;;8.10;99.90;;;;;;5048662;28;20040;-79
2022/11/15 03:38:24;;;;;;;3.78;1.45;;;8.10;99.90;;;;;;5045125;28;20037;-79
2022/11/15 03:41:03;;;;;;;2.95;1.23;;;8.30;99.90;;;;;;5046061;28;20119;-79
2022/11/15 03:43:47;;;;;;;6.43;3.78;;;8.30;99.90;;;;;;5046606;28;20040;-78
2022/11/15 03:46:17;;;;;;;5.93;3.45;;;8.30;99.90;;;;;;5043778;28;20017;-79
2022/11/15 03:48:49;;;;;;;7.90;4.30;;;8.30;99.90;;;;;;5037783;28;20039;-79
2022/11/15 03:51:15;;;;;;;8.45;4.85;;;8.20;99.90;;;;;;5043986;28;20110;-79
2022/11/15 03:53:42;;;;;;;8.18;4.93;;;8.20;99.90;;;;;;5042500;28;20025;-79
2022/11/15 03:56:07;;;;;;;8.98;5.85;;;8.10;99.90;;;;;;5044619;28;20075;-79
2022/11/15 03:58:33;;;;;;;12.32;5.75;;;8.00;99.90;;;;;;5041300;28;20056;-78
2022/11/15 04:00:59;;;;;;;12.18;6.40;;;7.80;99.90;;;;;;5045962;28;20020;-79
2022/11/15 04:03:25;;;;;;;8.90;5.78;;;7.80;99.90;;;;;;5044161;28;20025;-79
2022/11/15 04:05:50;;;;;;;7.38;5.97;;;7.60;99.90;;;;;;5043133;28;20706;-80
2022/11/15 04:08:16;;;;;;;10.40;6.38;;;7.50;99.90;;;;;;5045288;28;20567;-79
2022/11/15 04:10:42;;;;;;;13.70;7.18;;;7.40;99.90;;;;;;5047078;28;20467;-79
2022/11/15 04:13:08;;;;;;;16.65;7.18;;;7.40;99.90;;;;;;5043189;28;20025;-80
2022/11/15 04:15:34;;;;;;;13.23;6.85;;;7.30;99.90;;;;;;5038918;28;20496;-80
2022/11/15 04:17:59;;;;;;;13.45;6.40;;;7.30;99.90;;;;;;5042898;28;20417;-79
2022/11/15 04:26:14;;;;;;;13.32;6.75;;;7.10;99.90;;;;;;5041431;28;20421;-79
2022/11/15 04:29:33;;;;;;;13.43;7.65;;;7.10;99.90;;;;;;5046456;28;20025;-79
2022/11/15 04:31:26;;;;;;;13.10;7.90;;;7.00;99.90;;;;;;5042321;28;20473;-80
2022/11/15 04:33:52;;;;;;;12.32;6.85;;;7.00;99.90;;;;;;5044290;28;20444;-79
2022/11/15 04:39:03;;;;;;;11.55;7.60;;;6.90;99.90;;;;;;5050035;28;20167;-80
2022/11/15 04:41:29;;;;;;;13.38;8.18;;;6.90;99.90;;;;;;5045718;28;20024;-80
2022/11/15 04:43:55;;;;;;;11.68;7.82;;;6.90;99.90;;;;;;5045346;28;20472;-80
2022/11/15 04:46:21;;;;;;;14.20;7.75;;;6.90;99.90;;;;;;5044313;28;20040;-79
2022/11/15 04:48:46;;;;;;;12.00;7.57;;;6.90;99.90;;;;;;5050027;28;20080;-80
2022/11/15 04:51:12;;;;;;;13.00;7.20;;;6.90;99.90;;;;;;5048018;28;20072;-79
2022/11/15 04:53:38;;;;;;;11.65;7.57;;;6.90;99.90;;;;;;5053687;28;20538;-80
2022/11/15 04:56:04;;;;;;;13.13;8.02;;;6.90;99.90;;;;;;5049206;28;20059;-80
2022/11/15 04:58:29;;;;;;;11.88;7.63;;;6.90;99.90;;;;;;5052673;28;20400;-79
2022/11/15 05:00:55;;;;;;;12.95;7.82;;;6.90;99.90;;;;;;5054641;28;20033;-80
2022/11/15 05:06:06;;;;;;;15.15;7.55;;;6.90;99.90;;;;;;5050310;28;20051;-79
2022/11/15 05:08:32;;;;;;;13.60;7.78;;;6.90;99.90;;;;;;5051558;28;20029;-79
2022/11/15 05:10:57;;;;;;;12.38;7.82;;;6.90;99.90;;;;;;5048056;28;20071;-80
2022/11/15 05:13:23;;;;;;;11.90;7.35;;;6.90;99.90;;;;;;5046721;28;20337;-80
2022/11/15 05:15:49;;;;;;;11.32;7.13;;;6.90;99.90;;;;;;5046897;28;20476;-80
2022/11/15 05:18:15;;;;;;;11.80;6.90;;;6.90;99.90;;;;;;5043679;28;20056;-80
2022/11/15 05:20:40;;;;;;;12.75;7.63;;;6.90;99.90;;;;;;5041075;28;20036;-81
2022/11/15 05:23:06;;;;;;;10.40;6.15;;;6.90;99.90;;;;;;5047352;28;20029;-80
2022/11/15 05:25:31;;;;;;;10.57;6.72;;;6.90;99.90;;;;;;5047850;28;20064;-81
2022/11/15 05:27:57;;;;;;;12.48;7.07;;;6.90;99.90;;;;;;5043537;28;20131;-81
2022/11/15 05:30:23;;;;;;;8.95;6.38;;;6.90;99.90;;;;;;5044553;28;20056;-81
2022/11/15 05:32:49;;;;;;;12.50;5.97;;;7.00;99.90;;;;;;5044158;28;20480;-80
2022/11/15 05:35:41;;;;;;;8.93;5.50;;;7.00;99.90;;;;;;5046644;28;20035;-80
2022/11/15 05:38:07;;;;;;;9.90;6.63;;;7.00;99.90;;;;;;5040881;28;20690;-79
2022/11/15 05:40:34;;;;;;;16.05;6.13;;;7.10;99.90;;;;;;5041246;28;20048;-79
2022/11/15 05:43:02;;;;;;;10.50;6.85;;;7.10;99.90;;;;;;5047926;28;20642;-79
2022/11/15 05:45:28;;;;;;;16.67;7.05;;;7.10;99.90;;;;;;5045902;28;20432;-80
2022/11/15 05:47:57;;;;;;;14.60;7.47;;;7.10;99.90;;;;;;5045886;28;20052;-80
2022/11/15 05:50:23;;;;;;;10.88;7.68;;;7.10;99.90;;;;;;5042285;28;20029;-79
2022/11/15 05:52:49;;;;;;;12.52;8.65;;;7.10;99.90;;;;;;5045004;28;20025;-80
2022/11/15 05:55:15;;;;;;;13.82;8.68;;;7.10;99.90;;;;;;5043662;28;20037;-81
2022/11/15 05:57:41;;;;;;;19.52;8.93;;;7.10;99.90;;;;;;5044118;28;20107;-80
2022/11/15 06:00:09;;;;;;;12.68;7.78;;;7.10;99.90;;;;;;5041871;28;20059;-80
2022/11/15 06:02:35;;;;;;;13.95;7.65;;;7.00;99.90;;;;;;5035493;28;20029;-79
2022/11/15 06:05:01;;;;;;;14.48;8.20;;;7.00;99.90;;;;;;5044021;28;20549;-80
2022/11/15 06:07:26;;;;;;;18.90;6.95;;;7.00;99.90;;;;;;5039778;28;20066;-80
2022/11/15 06:09:52;;;;;;;14.27;7.00;;;6.90;99.90;;;;;;5041208;28;20048;-80
2022/11/15 06:12:17;;;;;;;10.45;5.95;;;7.00;99.90;;;;;;5045868;28;20087;-79
2022/11/15 06:14:43;;;;;;;8.68;4.00;;;6.90;99.90;;;;;;5040238;28;20021;-80
2022/11/15 06:17:09;;;;;;;5.10;2.60;;;7.00;99.90;;;;;;5041706;28;20113;-80
2022/11/15 06:19:34;;;;;;;4.75;2.00;;;7.00;99.90;;;;;;5040779;28;20543;-79
2022/11/15 06:22:00;;;;;;;4.05;2.08;;;7.20;99.90;;;;;;5042040;28;20025;-80
2022/11/15 06:24:26;;;;;;;4.95;2.05;;;7.30;99.90;;;;;;5042922;28;20028;-80
2022/11/15 06:26:51;;;;;;;3.78;2.00;;;7.50;99.90;;;;;;5048183;28;20029;-81
2022/11/15 06:29:17;;;;;;;6.65;1.80;;;7.60;99.90;;;;;;5039296;28;20508;-80
2022/11/15 06:31:42;;;;;;;6.00;2.42;;;7.70;99.90;;;;;;5041129;28;20068;-80
2022/11/15 06:34:08;;;;;;;4.75;2.22;;;7.90;99.90;;;;;;5041431;28;20041;-80
2022/11/15 06:36:35;;;;;;;4.15;2.15;;;8.00;99.90;;;;;;5048188;28;20025;-80
2022/11/15 06:39:02;;;;;;;5.93;2.10;;;8.10;99.90;;;;;;5050277;28;20477;-80
2022/11/15 06:41:27;;;;;;;4.15;2.20;;;8.30;99.90;;;;;;5061645;28;20078;-79
2022/11/15 06:43:53;;;;;;;4.38;2.50;;;8.40;99.90;;;;;;5060187;28;20028;-82
2022/11/15 06:46:18;;;;;;;4.97;2.22;;;8.50;99.90;;;;;;5064461;28;20055;-78
2022/11/15 06:48:44;;;;;;;5.85;2.65;;;8.50;99.90;;;;;;5063508;28;20110;-80
2022/11/15 06:51:10;;;;;;;4.35;2.40;;;8.50;99.90;;;;;;5063278;28;20025;-82
2022/11/15 06:53:36;;;;;;;3.05;2.25;;;8.60;99.90;;;;;;5047193;28;20025;-78
2022/11/15 06:56:04;;;;;;;4.85;2.40;;;8.60;99.90;;;;;;5048453;22;20053;-80
2022/11/15 06:58:30;;;;;;;5.38;2.40;;;8.60;99.90;;;;;;5022995;28;20029;-80
2022/11/15 07:01:11;;;;;;;4.80;2.13;;;8.70;99.90;;;;;;5027398;28;20470;-79
2022/11/15 07:03:41;;;;;;;4.20;2.72;;;8.70;99.90;;;;;;5018573;28;20025;-79
2022/11/15 07:06:08;;;;;;;6.32;3.08;;;8.70;99.90;;;;;;5005137;28;20056;-78
2022/11/15 07:08:35;;;;;;;4.50;3.00;;;8.70;99.90;;;;;;5001201;28;20018;-79
2022/11/15 07:11:05;;;;;;;6.07;2.80;;;8.70;99.90;;;;;;4994900;28;20548;-80
2022/11/15 07:13:34;;;;;;;5.60;2.72;;;8.70;99.90;;;;;;5002705;28;20073;-79
2022/11/15 07:16:09;;;;;;;8.98;2.92;;;8.80;99.90;;;;;;5001469;28;20486;-79
2022/11/15 07:18:35;;;;;;;4.88;2.30;;;8.80;99.90;;;;;;5006890;28;20034;-81
2022/11/15 07:21:03;;;;;;;4.75;2.67;;;8.80;99.90;;;;;;5002358;28;20494;-81
2022/11/15 07:23:29;;;;;;;6.97;2.70;;;8.90;99.90;;;;;;5002786;28;20088;-80
2022/11/15 07:25:58;;;;;;;5.88;2.33;;;8.90;99.90;;;;;;5002480;28;20034;-81
2022/11/15 07:28:24;;;;;;;8.80;2.80;;;8.90;99.90;;;;;;5000430;28;20053;-81
2022/11/15 07:30:49;;;;;;;9.40;3.10;;;9.00;99.90;;;;;;5003935;28;20061;-80
2022/11/15 07:33:15;;;;;;;5.97;2.35;;;9.10;99.90;;;;;;5009547;28;20459;-82
2022/11/15 07:35:42;;;;;;;7.00;2.90;;;9.10;99.90;;;;;;5023894;28;20026;-79
2022/11/15 07:38:08;;;;;;;6.18;2.25;;;9.10;99.90;;;;;;5003097;28;20021;-79
2022/11/15 07:40:34;;;;;;;8.13;2.67;;;9.10;99.90;;;;;;5005702;28;20041;-79
2022/11/15 07:43:01;;;;;;;5.60;2.33;;;9.10;99.90;;;;;;5021015;28;20467;-79
2022/11/15 07:45:28;;;;;;;4.97;2.80;;;9.20;99.90;;;;;;5007960;28;20030;-79
2022/11/15 07:47:55;;;;;;;4.22;2.22;;;9.20;99.90;;;;;;5004451;28;20105;-78
2022/11/15 07:50:22;;;;;;;4.93;2.55;;;9.30;99.90;;;;;;4997078;28;20030;-77
2022/11/15 07:52:57;;;;;;;7.70;2.42;;;9.30;99.90;;;;;;5008950;28;20058;-76
2022/11/15 07:55:24;;;;;;;5.15;2.55;;;9.40;99.90;;;;;;5003085;28;20048;-77
2022/11/15 07:57:50;;;;;;;7.13;2.63;;;9.50;99.90;;;;;;5002935;28;20053;-77
2022/11/15 08:00:16;;;;;;;4.72;2.47;;;9.60;99.90;;;;;;5007714;28;20368;-77
2022/11/15 08:02:42;;;;;;;7.10;2.30;;;9.60;99.90;;;;;;5002075;28;20437;-77
2022/11/15 08:05:08;;;;;;;5.00;2.90;;;9.70;99.90;;;;;;5007765;28;20026;-77
2022/11/15 08:07:34;;;;;;;5.60;2.10;;;9.70;99.90;;;;;;5008568;28;20026;-77
2022/11/15 08:10:03;;;;;;;4.30;2.28;;;9.70;99.90;;;;;;4994942;28;20030;-77
2022/11/15 08:12:29;;;;;;;4.35;2.30;;;9.80;99.90;;;;;;5000483;28;20114;-77
2022/11/15 08:14:56;;;;;;;3.63;2.00;;;9.80;99.90;;;;;;5008849;28;20113;-77
2022/11/15 08:17:23;;;;;;;4.60;2.20;;;9.80;99.90;;;;;;5004893;28;20018;-76
2022/11/15 08:19:48;;;;;;;4.18;1.98;;;9.90;99.90;;;;;;5010494;28;20018;-77
2022/11/15 08:22:14;;;;;;;7.18;2.05;;;9.90;99.90;;;;;;5007451;28;20395;-77
2022/11/15 08:24:40;;;;;;;4.88;2.20;;;9.90;99.90;;;;;;5010329;28;20045;-78
2022/11/15 08:27:14;;;;;;;3.75;2.15;;;9.90;99.90;;;;;;5010918;28;20478;-77
2022/11/15 08:29:43;;;;;;;2.92;1.65;;;9.90;99.90;;;;;;5004985;28;20026;-78
2022/11/15 08:32:10;;;;;;;4.93;2.35;;;9.90;99.90;;;;;;5004123;28;20436;-77
2022/11/15 08:34:36;;;;;;;3.95;2.10;;;9.90;99.90;;;;;;5006517;28;20435;-77
2022/11/15 08:37:02;;;;;;;5.13;2.00;;;10.00;99.90;;;;;;5006944;28;20497;-77
2022/11/15 08:39:27;;;;;;;6.45;2.25;;;9.90;99.90;;;;;;5006958;28;20034;-77
2022/11/15 08:41:53;;;;;;;4.95;1.98;;;9.90;99.90;;;;;;5002577;28;20052;-77
2022/11/15 08:44:19;;;;;;;6.93;2.40;;;9.90;99.90;;;;;;5004173;28;20108;-77
2022/11/15 08:46:47;;;;;;;4.13;1.75;;;10.00;99.90;;;;;;5005010;28;20076;-77
2022/11/15 08:49:13;;;;;;;3.13;1.73;;;10.00;99.90;;;;;;5007852;28;20029;-77
2022/11/15 08:51:39;;;;;;;3.20;1.90;;;10.00;99.90;;;;;;5007096;28;20379;-78
2022/11/15 08:54:05;;;;;;;6.00;1.98;;;10.10;99.90;;;;;;5006444;28;20034;-77
2022/11/15 08:56:30;;;;;;;7.95;2.25;;;10.10;99.90;;;;;;5002477;28;20037;-77
2022/11/15 08:58:56;;;;;;;5.10;2.40;;;10.10;99.90;;;;;;5003328;28;20066;-77
2022/11/15 09:01:22;;;;;;;5.72;2.83;;;10.20;99.90;;;;;;5007594;28;20501;-78
2022/11/15 09:03:48;;;;;;;7.38;2.25;;;10.20;99.90;;;;;;5004193;28;20079;-78
2022/11/15 09:06:14;;;;;;;7.82;3.80;;;10.20;99.90;;;;;;5005563;28;20038;-77
2022/11/15 09:08:40;;;;;;;8.98;4.65;;;10.20;99.90;;;;;;5003378;28;20067;-77
2022/11/15 09:11:08;;;;;;;8.88;4.25;;;10.30;99.90;;;;;;5002078;28;20026;-78
2022/11/15 09:13:33;;;;;;;5.95;3.05;;;10.30;99.90;;;;;;5006754;28;20401;-76
2022/11/15 09:16:00;;;;;;;11.07;5.05;;;10.40;99.90;;;;;;5007702;28;20038;-77
2022/11/15 09:18:27;;;;;;;10.82;6.30;;;10.40;99.90;;;;;;5007842;28;20038;-77
2022/11/15 09:20:56;;;;;;;12.20;6.43;;;10.40;99.90;;;;;;5002301;28;20026;-77
2022/11/15 09:23:22;;;;;;;8.55;5.72;;;10.30;99.90;;;;;;5006721;28;20053;-77
2022/11/15 09:25:48;;;;;;;12.13;7.30;;;10.30;99.90;;;;;;5006219;28;20038;-77
2022/11/15 09:28:14;;;;;;;14.00;6.65;;;10.20;99.90;;;;;;5006403;28;20022;-77
2022/11/15 09:30:39;;;;;;;13.57;7.25;;;10.10;99.90;;;;;;5003904;28;20604;-77
2022/11/15 09:33:09;;;;;;;14.00;7.70;;;10.10;99.90;;;;;;5006965;28;20040;-76
2022/11/15 09:35:35;;;;;;;17.70;7.13;;;10.00;99.90;;;;;;5004258;28;20562;-77
2022/11/15 09:38:01;;;;;;;13.15;7.00;;;9.90;99.90;;;;;;5002478;28;20200;-77
2022/11/15 09:40:27;;;;;;;13.90;6.68;;;9.90;99.90;;;;;;5004478;28;20037;-77
2022/11/15 09:43:05;;;;;;;13.05;6.75;;;9.80;99.90;;;;;;5003420;28;20026;-77
2022/11/15 09:45:47;;;;;;;15.50;6.32;;;9.70;99.90;;;;;;5003566;28;20417;-77
2022/11/15 09:48:35;;;;;;;15.18;7.35;;;9.70;99.90;;;;;;5003329;28;20022;-77
2022/11/15 09:51:03;;;;;;;14.95;7.18;;;9.80;99.90;;;;;;5004734;28;20551;-77
2022/11/15 09:53:49;;;;;;;13.88;7.20;;;9.80;99.90;;;;;;5007438;28;20026;-77
2022/11/15 09:56:25;;;;;;;12.98;6.78;;;9.80;99.90;;;;;;4986820;28;20166;-77
2022/11/15 09:58:57;;;;;;;17.63;7.10;;;9.80;99.90;;;;;;5000039;28;20065;-78
2022/11/15 10:01:55;;;;;;;13.05;6.90;;;9.90;99.90;;;;;;5001948;28;20045;-77
2022/11/15 10:04:22;;;;;;;18.98;8.45;;;9.90;99.90;;;;;;5005640;28;20037;-78
2022/11/15 10:07:26;;;;;;;11.38;6.38;;;10.00;99.90;;;;;;5003573;28;20470;-78
2022/11/15 10:10:11;;;;;;;15.65;6.07;;;10.00;99.90;;;;;;5000395;28;20026;-78
2022/11/15 10:12:37;;;;;;;12.90;5.82;;;10.00;99.90;;;;;;5007558;28;20032;-78
2022/11/15 10:15:16;;;;;;;15.82;6.32;;;10.00;99.90;;;;;;5004732;28;20030;-78
2022/11/15 10:18:00;;;;;;;10.88;6.68;;;10.10;99.90;;;;;;5006253;28;20018;-78
2022/11/15 10:20:29;;;;;;;18.95;7.18;;;10.10;99.90;;;;;;5000673;28;20022;-78
2022/11/15 10:23:05;;;;;;;11.30;6.13;;;10.10;99.90;;;;;;5001297;28;20022;-78
2022/11/15 10:25:32;;;;;;;13.20;5.88;;;10.20;99.90;;;;;;5005453;28;20065;-78
2022/11/15 10:28:15;;;;;;;13.85;6.15;;;10.20;99.90;;;;;;5003917;28;20022;-78
2022/11/15 10:30:46;;;;;;;10.00;5.97;;;10.30;99.90;;;;;;5000809;28;20028;-78
2022/11/15 10:33:35;;;;;;;14.52;6.22;;;10.30;99.90;;;;;;5005537;28;20025;-78
2022/11/15 10:36:13;;;;;;;9.98;5.78;;;10.40;99.90;;;;;;4999463;28;20632;-78
2022/11/15 10:38:48;;;;;;;12.90;6.03;;;10.50;99.90;;;;;;5000940;28;20026;-78
2022/11/15 10:41:15;;;;;;;13.07;6.60;;;10.50;99.90;;;;;;5002265;28;20377;-77
2022/11/15 10:43:41;;;;;;;10.85;6.63;;;10.50;99.90;;;;;;5000510;28;20175;-77
2022/11/15 10:46:22;;;;;;;9.35;5.95;;;10.60;99.90;;;;;;5006368;28;20029;-78
2022/11/15 10:48:48;;;;;;;11.27;6.03;;;10.70;99.90;;;;;;5016252;28;20030;-78
2022/11/15 10:51:28;;;;;;;12.93;5.55;;;10.70;99.90;;;;;;5001714;28;20030;-78
2022/11/15 10:53:56;;;;;;;13.02;6.03;;;10.80;99.90;;;;;;5000727;28;20054;-78
2022/11/15 10:56:23;;;;;;;14.82;5.53;;;10.80;99.90;;;;;;4995196;28;20117;-78
2022/11/15 10:58:57;;;;;;;10.60;5.53;;;10.90;99.90;;;;;;5000098;28;20041;-77
2022/11/15 11:01:29;;;;;;;9.57;6.07;;;10.90;99.90;;;;;;5002569;28;20050;-78
2022/11/15 11:04:06;;;;;;;16.95;5.95;;;11.00;99.90;;;;;;5001854;28;20429;-78
2022/11/15 11:06:59;;;;;;;10.77;5.57;;;11.00;99.90;;;;;;5006270;28;20041;-78
2022/11/15 11:09:35;;;;;;;11.65;5.75;;;11.00;99.90;;;;;;5008499;28;20017;-78
2022/11/15 11:12:02;;;;;;;12.68;5.15;;;11.10;99.90;;;;;;5011965;28;20029;-79
2022/11/15 11:14:36;;;;;;;11.80;5.45;;;11.10;99.90;;;;;;5000905;28;20033;-79
2022/11/15 11:17:17;;;;;;;16.38;5.82;;;11.10;99.90;;;;;;5002942;28;20084;-82
2022/11/15 11:20:07;;;;;;;10.98;5.00;;;11.10;99.90;;;;;;5021732;28;20026;-81
2022/11/15 11:22:58;;;;;;;10.82;5.18;;;11.20;99.90;;;;;;5002857;28;20030;-79
2022/11/15 11:25:40;;;;;;;12.02;6.07;;;11.20;99.90;;;;;;4974710;28;20117;-78
2022/11/15 11:28:37;;;;;;;11.75;6.22;;;11.20;99.90;;;;;;5007730;28;20104;-81
2022/11/15 11:31:12;;;;;;;12.55;6.13;;;11.30;99.90;;;;;;5009947;28;20030;-79
2022/11/15 11:33:56;;;;;;;9.57;5.68;;;11.30;99.90;;;;;;5009126;28;20076;-81
2022/11/15 11:36:35;;;;;;;9.02;6.10;;;11.40;99.90;;;;;;5006728;28;20109;-78
2022/11/15 11:39:19;;;;;;;16.95;6.13;;;11.40;99.90;;;;;;5007012;28;20038;-81
2022/11/15 11:42:04;;;;;;;13.13;6.55;;;11.40;99.90;;;;;;5009142;28;20095;-82
2022/11/15 11:44:29;;;;;;;;;;;11.50;99.90;;;;;;5010238;28;20084;-80
2022/11/15 11:47:22;;;;;;;12.07;6.30;;;11.50;99.90;;;;;;5006384;28;20259;-83
2022/11/15 11:49:54;;;;;;;10.43;6.05;;;11.50;99.90;;;;;;5008269;28;20029;-81
2022/11/15 11:52:52;;;;;;;12.75;6.32;;;11.50;99.90;;;;;;5009814;28;20049;-79
2022/11/15 11:55:51;;;;;;;12.02;5.72;;;11.60;99.90;;;;;;4991871;28;20053;-81
2022/11/15 11:58:32;;;;;;;12.60;5.75;;;11.60;99.90;;;;;;5001960;28;20058;-81
2022/11/15 12:01:21;;;;;;;9.82;5.18;;;11.60;99.90;;;;;;5003087;28;20030;-81
2022/11/15 12:04:12;;;;;;;8.98;5.35;;;11.70;99.90;;;;;;5006228;28;20052;-81
2022/11/15 12:06:59;;;;;;;15.07;5.53;;;11.70;99.90;;;;;;5008749;28;20033;-82
2022/11/15 12:09:52;;;;;;;11.63;5.88;;;11.70;99.90;;;;;;5005889;28;20105;-81
2022/11/15 12:12:44;;;;;;;11.48;5.70;;;11.70;99.90;;;;;;5006562;28;20033;-81
2022/11/15 12:15:10;;;;;;;10.85;6.63;;;11.80;99.90;;;;;;5006272;28;20131;-81
2022/11/15 12:17:38;;;;;;;11.18;7.05;;;11.80;99.90;;;;;;5008086;28;20096;-81
2022/11/15 12:20:15;;;;;;;12.27;6.70;;;11.80;99.90;;;;;;5005828;28;20040;-80
2022/11/15 12:22:53;;;;;;;16.60;7.28;;;11.90;99.90;;;;;;5009883;28;20060;-82
2022/11/15 12:25:33;;;;;;;9.48;6.72;;;11.90;99.90;;;;;;5002350;28;20030;-81
2022/11/15 12:28:32;;;;;;;13.02;6.55;;;12.00;99.90;;;;;;5004378;28;20022;-80
2022/11/15 12:31:13;;;;;;;11.77;7.35;;;12.00;99.90;;;;;;5010363;28;20022;-80
2022/11/15 12:33:44;;;;;;;13.35;7.63;;;12.00;99.90;;;;;;5004401;28;20029;-80
2022/11/15 12:36:28;;;;;;;12.48;7.18;;;12.00;99.90;;;;;;5007865;28;20053;-81
2022/11/15 12:39:02;;;;;;;17.02;8.27;;;12.00;99.90;;;;;;5006013;28;20042;-81
2022/11/15 12:41:37;;;;;;;12.45;7.22;;;12.00;99.90;;;;;;5021680;28;20034;-81
2022/11/15 12:44:04;;;;;;;14.18;8.65;;;12.00;99.90;;;;;;4999810;28;20442;-80
2022/11/15 12:46:30;;;;;;;15.18;8.10;;;12.00;99.90;;;;;;5005835;28;20045;-81
2022/11/15 12:48:57;;;;;;;18.45;8.32;;;12.00;99.90;;;;;;5002252;28;20572;-80
2022/11/15 12:51:43;;;;;;;15.73;8.68;;;12.10;99.90;;;;;;5005965;28;20025;-81
2022/11/15 12:56:40;;;;;;;16.73;7.97;;;12.20;99.90;;;;;;4999398;28;20085;-81
2022/11/15 12:59:07;;;;;;;17.58;8.88;;;12.20;99.90;;;;;;5008664;28;20026;-80
2022/11/15 13:01:35;;;;;;;17.58;8.00;;;12.20;99.90;;;;;;5011089;28;20041;-80
2022/11/15 13:04:21;;;;;;;16.40;7.95;;;12.30;99.90;;;;;;5006544;28;21132;-80
2022/11/15 13:07:00;;;;;;;16.80;7.85;;;12.30;99.90;;;;;;4990514;28;20073;-81
2022/11/15 13:09:31;;;;;;;14.57;8.85;;;12.30;99.90;;;;;;4987220;28;20409;-80
2022/11/15 13:12:01;;;;;;;20.67;9.02;;;12.30;99.90;;;;;;4988729;28;20492;-80
2022/11/15 13:14:47;;;;;;;18.52;8.65;;;12.30;99.90;;;;;;4989273;28;20105;-80
2022/11/15 13:17:18;;;;;;;17.90;9.13;;;12.40;99.90;;;;;;4984143;28;20651;-79
2022/11/15 13:19:47;;;;;;;22.80;9.23;;;12.40;99.90;;;;;;4985918;28;20049;-81
2022/11/15 13:24:59;;;;;;;19.80;9.05;;;12.50;99.90;;;;;;4993435;28;20246;-79
2022/11/15 13:27:25;;;;;;;29.23;12.85;;;12.50;99.90;;;;;;4991763;28;20054;-81